Time;durP1;ratioP1;P1;durP2;ratioP2;P2;SDS_P1;SDS_P2;PMS_P1;PMS_P2;Temp;Humidity;BMP_temperature;BMP_pressure;BME280_temperature;BME280_humidity;BME280_pressure;Samples;Min_cycle;Max_cycle;Signal;HPM_P1;HPM_P2
2023/05/26 00:01:00;;;;;;;11.45;5.82;;;;;;;;;;5081009;28;20227;-53
2023/05/26 00:03:28;;;;;;;13.15;4.70;;;;;;;;;;5084556;28;20230;-52
2023/05/26 00:05:55;;;;;;;11.05;4.50;;;;;;;;;;5085889;28;20642;-53
2023/05/26 00:08:22;;;;;;;11.77;5.05;;;;;;;;;;5073349;28;20779;-52
2023/05/26 00:10:49;;;;;;;10.93;5.03;;;;;;;;;;5086054;28;20226;-50
2023/05/26 00:13:17;;;;;;;12.63;4.78;;;;;;;;;;5083434;28;20786;-55
2023/05/26 00:15:47;;;;;;;11.88;4.68;;;;;;;;;;5080343;28;20231;-52
2023/05/26 00:18:14;;;;;;;12.65;4.97;;;;;;;;;;5086474;28;20371;-51
2023/05/26 00:20:41;;;;;;;9.55;4.22;;;;;;;;;;5086923;28;20279;-52
2023/05/26 00:23:07;;;;;;;11.35;5.07;;;;;;;;;;5081544;28;20295;-51
2023/05/26 00:25:34;;;;;;;11.20;4.47;;;;;;;;;;5079599;28;20708;-52
2023/05/26 00:28:01;;;;;;;14.27;4.82;;;;;;;;;;5082495;28;20233;-51
2023/05/26 00:30:30;;;;;;;11.10;5.07;;;;;;;;;;5083651;28;20280;-51
2023/05/26 00:32:57;;;;;;;8.50;4.72;;;;;;;;;;5075767;28;20939;-53
2023/05/26 00:35:23;;;;;;;11.68;5.43;;;;;;;;;;5081767;28;20309;-53
2023/05/26 00:37:50;;;;;;;11.95;5.47;;;;;;;;;;5080446;28;20740;-53
2023/05/26 00:40:17;;;;;;;17.33;5.78;;;;;;;;;;5078615;28;20238;-52
2023/05/26 00:42:44;;;;;;;11.18;4.50;;;;;;;;;;5075126;28;20234;-52
2023/05/26 00:45:11;;;;;;;13.77;4.93;;;;;;;;;;5082680;28;20247;-51
2023/05/26 00:47:39;;;;;;;9.80;4.97;;;;;;;;;;5078955;28;20442;-53
2023/05/26 00:50:06;;;;;;;12.63;4.53;;;;;;;;;;5087535;28;21162;-54
2023/05/26 00:52:34;;;;;;;8.05;4.05;;;;;;;;;;5091676;27;20237;-53
2023/05/26 00:55:00;;;;;;;9.20;4.85;;;;;;;;;;5078251;28;20231;-53
2023/05/26 00:57:27;;;;;;;8.57;5.13;;;;;;;;;;5081737;28;20227;-53
2023/05/26 00:59:55;;;;;;;12.88;5.78;;;;;;;;;;5082837;28;20230;-52
2023/05/26 01:02:22;;;;;;;15.18;4.38;;;;;;;;;;5077535;28;20326;-51
2023/05/26 01:04:52;;;;;;;12.40;4.55;;;;;;;;;;5081905;28;20230;-52
2023/05/26 01:07:19;;;;;;;9.23;4.22;;;;;;;;;;5080619;28;20238;-51
2023/05/26 01:09:46;;;;;;;10.10;4.63;;;;;;;;;;5078117;28;20322;-60
2023/05/26 01:12:14;;;;;;;11.52;4.68;;;;;;;;;;5079050;28;20793;-52
2023/05/26 01:14:44;;;;;;;11.60;4.70;;;;;;;;;;5074847;28;20241;-51
2023/05/26 01:17:13;;;;;;;11.60;4.97;;;;;;;;;;5076409;28;20230;-51
2023/05/26 01:19:52;;;;;;;12.88;4.80;;;;;;;;;;5081680;28;20789;-53
2023/05/26 01:22:37;;;;;;;8.38;4.38;;;;;;;;;;5079167;27;20898;-51
2023/05/26 01:25:12;;;;;;;8.85;4.18;;;;;;;;;;5075404;28;20230;-51
2023/05/26 01:27:45;;;;;;;11.30;4.60;;;;;;;;;;5076935;28;20258;-52
2023/05/26 01:30:13;;;;;;;7.97;5.03;;;;;;;;;;5072504;28;20416;-51
2023/05/26 01:32:46;;;;;;;10.95;4.75;;;;;;;;;;5082198;28;20262;-53
2023/05/26 01:35:12;;;;;;;8.02;5.05;;;;;;;;;;5081431;28;20234;-50
2023/05/26 01:37:40;;;;;;;9.90;4.07;;;;;;;;;;5078644;28;20230;-52
2023/05/26 01:40:08;;;;;;;10.77;5.28;;;;;;;;;;5078555;28;20731;-51
2023/05/26 01:42:37;;;;;;;8.05;4.43;;;;;;;;;;5078742;28;20311;-51
2023/05/26 01:45:06;;;;;;;8.38;4.50;;;;;;;;;;5081296;28;20754;-52
2023/05/26 01:47:34;;;;;;;13.77;5.32;;;;;;;;;;5078756;28;20352;-52
2023/05/26 01:50:02;;;;;;;14.52;5.32;;;;;;;;;;5079972;28;20318;-51
2023/05/26 01:52:31;;;;;;;8.93;5.22;;;;;;;;;;5081508;28;20235;-51
2023/05/26 01:54:58;;;;;;;15.95;5.65;;;;;;;;;;5073557;28;20230;-53
2023/05/26 01:57:26;;;;;;;13.50;5.50;;;;;;;;;;5082540;28;20227;-54
2023/05/26 01:59:52;;;;;;;10.88;5.32;;;;;;;;;;5082819;28;20227;-51
2023/05/26 02:02:19;;;;;;;11.20;4.82;;;;;;;;;;5074666;28;20886;-52
2023/05/26 02:04:47;;;;;;;6.95;4.45;;;;;;;;;;5079207;28;20601;-56
2023/05/26 02:07:14;;;;;;;8.38;5.10;;;;;;;;;;5079978;28;20318;-52
2023/05/26 02:09:41;;;;;;;10.07;4.28;;;;;;;;;;5072830;28;20230;-52
2023/05/26 02:12:09;;;;;;;10.32;4.93;;;;;;;;;;5082083;28;20636;-52
2023/05/26 02:14:35;;;;;;;9.50;5.13;;;;;;;;;;5071079;28;20234;-54
2023/05/26 02:17:03;;;;;;;10.55;4.45;;;;;;;;;;5078761;28;20615;-53
2023/05/26 02:19:29;;;;;;;11.52;5.60;;;;;;;;;;5083643;28;20241;-52
2023/05/26 02:21:57;;;;;;;11.40;4.82;;;;;;;;;;5081611;28;20250;-53
2023/05/26 02:24:24;;;;;;;11.20;5.70;;;;;;;;;;5078753;28;20636;-52
2023/05/26 02:26:51;;;;;;;14.10;5.07;;;;;;;;;;5082084;28;20226;-52
2023/05/26 02:29:18;;;;;;;10.25;4.38;;;;;;;;;;5083312;28;20234;-52
2023/05/26 02:31:44;;;;;;;11.45;4.95;;;;;;;;;;5078445;28;20665;-51
2023/05/26 02:34:11;;;;;;;9.77;4.55;;;;;;;;;;5078747;28;20954;-53
2023/05/26 02:36:37;;;;;;;14.73;5.05;;;;;;;;;;5083287;28;20287;-51
2023/05/26 02:39:05;;;;;;;10.95;5.53;;;;;;;;;;5080296;28;20723;-51
2023/05/26 02:41:32;;;;;;;11.73;5.07;;;;;;;;;;5074422;28;20230;-53
2023/05/26 02:43:59;;;;;;;10.90;5.25;;;;;;;;;;5074813;28;20853;-51
2023/05/26 02:46:25;;;;;;;9.40;4.97;;;;;;;;;;5080153;28;20223;-51
2023/05/26 02:48:52;;;;;;;10.77;4.90;;;;;;;;;;5076137;28;20222;-54
2023/05/26 02:51:19;;;;;;;10.23;4.50;;;;;;;;;;5083927;28;20230;-52
2023/05/26 02:53:46;;;;;;;17.83;6.20;;;;;;;;;;5084380;28;20239;-52
2023/05/26 02:56:14;;;;;;;10.77;5.47;;;;;;;;;;5080846;28;20274;-52
2023/05/26 02:58:41;;;;;;;10.35;5.07;;;;;;;;;;5063271;28;20250;-50
2023/05/26 03:01:08;;;;;;;12.15;5.82;;;;;;;;;;5070323;28;20292;-52
2023/05/26 03:03:35;;;;;;;12.38;4.82;;;;;;;;;;5082039;28;20257;-52
2023/05/26 03:06:02;;;;;;;9.82;4.75;;;;;;;;;;5079957;28;20235;-51
2023/05/26 03:08:29;;;;;;;9.13;4.82;;;;;;;;;;5081884;28;20235;-51
2023/05/26 03:10:56;;;;;;;10.57;4.97;;;;;;;;;;5083508;28;20230;-52
2023/05/26 03:13:24;;;;;;;14.73;6.70;;;;;;;;;;5079947;28;20318;-52
2023/05/26 03:15:52;;;;;;;8.85;4.43;;;;;;;;;;5082483;28;20227;-51
2023/05/26 03:18:18;;;;;;;9.30;4.80;;;;;;;;;;5081747;28;20237;-52
2023/05/26 03:20:48;;;;;;;8.95;5.00;;;;;;;;;;5080636;28;20332;-52
2023/05/26 03:23:15;;;;;;;10.43;4.93;;;;;;;;;;5079540;28;20315;-52
2023/05/26 03:25:42;;;;;;;12.10;5.45;;;;;;;;;;5082310;28;20242;-52
2023/05/26 03:28:08;;;;;;;15.35;6.22;;;;;;;;;;5081060;28;20313;-51
2023/05/26 03:30:36;;;;;;;11.93;5.22;;;;;;;;;;5077248;28;20284;-52
2023/05/26 03:33:03;;;;;;;9.47;4.73;;;;;;;;;;5082485;28;20326;-55
2023/05/26 03:35:30;;;;;;;13.90;4.70;;;;;;;;;;5074591;28;20329;-53
2023/05/26 03:37:56;;;;;;;14.63;4.80;;;;;;;;;;5079311;28;21373;-51
2023/05/26 03:40:23;;;;;;;11.07;4.80;;;;;;;;;;5077865;28;20254;-58
2023/05/26 03:42:49;;;;;;;10.57;4.93;;;;;;;;;;5082274;28;20230;-51
2023/05/26 03:45:16;;;;;;;8.23;4.77;;;;;;;;;;5082008;28;20605;-52
2023/05/26 03:47:44;;;;;;;13.17;4.83;;;;;;;;;;5081241;28;20231;-53
2023/05/26 03:50:11;;;;;;;8.70;5.23;;;;;;;;;;5079188;28;20227;-51
2023/05/26 03:52:39;;;;;;;13.03;5.37;;;;;;;;;;5080277;28;20230;-52
2023/05/26 03:55:09;;;;;;;12.90;6.00;;;;;;;;;;5075880;28;20303;-52
2023/05/26 03:57:36;;;;;;;12.73;5.17;;;;;;;;;;5083106;28;20317;-53
2023/05/26 04:00:04;;;;;;;13.37;5.47;;;;;;;;;;5083283;27;20317;-51
2023/05/26 04:02:30;;;;;;;9.20;4.80;;;;;;;;;;5085097;28;20303;-53
2023/05/26 04:04:59;;;;;;;8.30;4.73;;;;;;;;;;5085304;28;20724;-52
2023/05/26 04:07:25;;;;;;;11.37;4.83;;;;;;;;;;5084365;28;20883;-50
2023/05/26 04:09:52;;;;;;;11.87;4.47;;;;;;;;;;5084596;28;20231;-52
2023/05/26 04:12:19;;;;;;;12.13;5.17;;;;;;;;;;5085366;28;20238;-52
2023/05/26 04:14:46;;;;;;;9.30;5.38;;;;;;;;;;5085925;28;20229;-54
2023/05/26 04:17:12;;;;;;;9.20;5.00;;;;;;;;;;5087456;28;20234;-51
2023/05/26 04:19:39;;;;;;;12.43;4.77;;;;;;;;;;5083561;28;20600;-50
2023/05/26 04:22:07;;;;;;;11.80;4.85;;;;;;;;;;5085602;28;20238;-51
2023/05/26 04:24:33;;;;;;;9.85;4.75;;;;;;;;;;5087434;28;20237;-52
2023/05/26 04:27:01;;;;;;;12.13;4.37;;;;;;;;;;5074079;28;20280;-51
2023/05/26 04:29:29;;;;;;;13.30;5.10;;;;;;;;;;5084929;28;20237;-53
2023/05/26 04:31:56;;;;;;;14.23;5.27;;;;;;;;;;5083959;28;20235;-52
2023/05/26 04:34:23;;;;;;;11.73;4.90;;;;;;;;;;5084905;28;20245;-52
2023/05/26 04:36:50;;;;;;;9.48;4.45;;;;;;;;;;5085577;28;20246;-50
2023/05/26 04:39:18;;;;;;;13.87;4.90;;;;;;;;;;5075763;28;20279;-56
2023/05/26 04:41:46;;;;;;;14.50;4.97;;;;;;;;;;5082807;27;20234;-52
2023/05/26 04:44:12;;;;;;;7.33;4.90;;;;;;;;;;5079066;28;20257;-51
2023/05/26 04:46:39;;;;;;;10.43;4.47;;;;;;;;;;5082531;28;20234;-53
2023/05/26 04:49:07;;;;;;;9.60;5.30;;;;;;;;;;5081778;28;20226;-52
2023/05/26 04:51:34;;;;;;;11.15;4.45;;;;;;;;;;5082477;28;20295;-52
2023/05/26 04:54:00;;;;;;;7.77;4.23;;;;;;;;;;5084314;28;20227;-51
2023/05/26 04:56:30;;;;;;;14.88;5.18;;;;;;;;;;5084130;28;20222;-52
2023/05/26 04:58:58;;;;;;;10.37;5.67;;;;;;;;;;5078414;28;20237;-53
2023/05/26 05:01:25;;;;;;;8.27;4.60;;;;;;;;;;5077136;28;20235;-53
2023/05/26 05:03:51;;;;;;;11.77;4.30;;;;;;;;;;5082234;28;20235;-53
2023/05/26 05:06:18;;;;;;;11.77;4.85;;;;;;;;;;5075164;28;20693;-51
2023/05/26 05:08:45;;;;;;;14.68;6.03;;;;;;;;;;5074527;28;20747;-52
2023/05/26 05:11:12;;;;;;;10.52;4.60;;;;;;;;;;5071201;28;20636;-51
2023/05/26 05:13:40;;;;;;;7.20;4.35;;;;;;;;;;5081359;28;20569;-51
2023/05/26 05:16:06;;;;;;;7.47;3.75;;;;;;;;;;5080751;28;20252;-52
2023/05/26 05:18:33;;;;;;;14.77;4.80;;;;;;;;;;5078331;28;20266;-54
2023/05/26 05:21:00;;;;;;;8.07;4.28;;;;;;;;;;5075745;28;20235;-52
2023/05/26 05:23:26;;;;;;;14.32;5.40;;;;;;;;;;5079938;28;20257;-52
2023/05/26 05:25:53;;;;;;;9.98;4.97;;;;;;;;;;5074870;28;20641;-52
2023/05/26 05:28:20;;;;;;;14.00;5.18;;;;;;;;;;5079385;28;20304;-52
2023/05/26 05:30:48;;;;;;;12.00;5.78;;;;;;;;;;5078936;28;20606;-54
2023/05/26 05:33:14;;;;;;;13.27;5.05;;;;;;;;;;5083859;28;20231;-50
2023/05/26 05:35:41;;;;;;;9.82;4.70;;;;;;;;;;5082805;28;20781;-52
2023/05/26 05:38:08;;;;;;;13.38;5.25;;;;;;;;;;5075518;28;20317;-51
2023/05/26 05:40:34;;;;;;;11.13;5.75;;;;;;;;;;5080909;28;20230;-51
2023/05/26 05:43:01;;;;;;;13.88;4.90;;;;;;;;;;5082108;28;20234;-51
2023/05/26 05:45:28;;;;;;;11.43;4.78;;;;;;;;;;5080110;28;20230;-51
2023/05/26 05:47:56;;;;;;;12.25;4.80;;;;;;;;;;5074477;28;20219;-53
2023/05/26 05:50:22;;;;;;;10.85;5.10;;;;;;;;;;5085438;28;20250;-54
2023/05/26 05:52:49;;;;;;;9.88;4.60;;;;;;;;;;5084429;28;20234;-52
2023/05/26 05:55:16;;;;;;;8.00;5.00;;;;;;;;;;5077500;28;20313;-51
2023/05/26 05:57:43;;;;;;;12.45;5.20;;;;;;;;;;5086619;28;20686;-52
2023/05/26 06:00:10;;;;;;;11.02;4.88;;;;;;;;;;5084094;28;20227;-52
2023/05/26 06:02:37;;;;;;;13.85;4.65;;;;;;;;;;5072493;28;20242;-51
2023/05/26 06:05:05;;;;;;;14.82;4.82;;;;;;;;;;5076959;28;20650;-51
2023/05/26 06:07:32;;;;;;;8.43;4.20;;;;;;;;;;5082689;28;20245;-52
2023/05/26 06:09:59;;;;;;;10.38;5.13;;;;;;;;;;5079346;28;20649;-53
2023/05/26 06:12:25;;;;;;;12.45;4.72;;;;;;;;;;5077903;28;20227;-52
2023/05/26 06:14:52;;;;;;;14.23;5.45;;;;;;;;;;5084678;28;20237;-52
2023/05/26 06:17:19;;;;;;;10.52;4.82;;;;;;;;;;5085257;28;20653;-52
2023/05/26 06:19:45;;;;;;;12.40;4.13;;;;;;;;;;5081479;28;20686;-53
2023/05/26 06:22:14;;;;;;;16.55;5.15;;;;;;;;;;5085603;28;20242;-53
2023/05/26 06:24:40;;;;;;;14.10;4.82;;;;;;;;;;5080822;28;20242;-52
2023/05/26 06:27:07;;;;;;;12.45;4.22;;;;;;;;;;5076734;28;20309;-54
2023/05/26 06:29:34;;;;;;;10.93;4.55;;;;;;;;;;5079311;28;20237;-53
2023/05/26 06:32:01;;;;;;;13.07;4.28;;;;;;;;;;5074899;28;20227;-51
2023/05/26 06:34:27;;;;;;;11.90;5.18;;;;;;;;;;5073238;28;20233;-52
2023/05/26 06:36:55;;;;;;;11.48;4.65;;;;;;;;;;5074717;28;20283;-51
2023/05/26 06:39:23;;;;;;;10.25;4.35;;;;;;;;;;5081957;28;20231;-51
2023/05/26 06:41:50;;;;;;;8.23;4.38;;;;;;;;;;5079473;28;20243;-52
2023/05/26 06:44:16;;;;;;;16.25;5.30;;;;;;;;;;5079012;28;20680;-51
2023/05/26 06:46:44;;;;;;;12.15;4.32;;;;;;;;;;5079157;28;20326;-51
2023/05/26 06:49:11;;;;;;;13.85;5.68;;;;;;;;;;5079565;28;20320;-50
2023/05/26 06:51:37;;;;;;;12.77;5.03;;;;;;;;;;5070739;28;20304;-53
2023/05/26 06:54:04;;;;;;;8.13;4.90;;;;;;;;;;5076077;28;20230;-51
2023/05/26 06:56:32;;;;;;;14.35;5.25;;;;;;;;;;5075978;28;20288;-50
2023/05/26 06:59:00;;;;;;;14.57;5.78;;;;;;;;;;5080623;28;20288;-53
2023/05/26 07:01:27;;;;;;;12.77;6.18;;;;;;;;;;5075934;28;20233;-52
2023/05/26 07:03:53;;;;;;;13.25;5.10;;;;;;;;;;5076268;28;20223;-51
2023/05/26 07:06:20;;;;;;;13.88;4.32;;;;;;;;;;5080135;28;20254;-52
2023/05/26 07:08:47;;;;;;;14.15;5.47;;;;;;;;;;5080755;28;20258;-51
2023/05/26 07:11:13;;;;;;;10.88;4.78;;;;;;;;;;5073286;28;20314;-51
2023/05/26 07:13:41;;;;;;;18.85;5.35;;;;;;;;;;5077226;28;20304;-54
2023/05/26 07:16:08;;;;;;;11.15;3.70;;;;;;;;;;5077438;28;21028;-52
2023/05/26 07:18:35;;;;;;;15.55;5.43;;;;;;;;;;5073708;28;20299;-56
2023/05/26 07:21:02;;;;;;;13.05;3.88;;;;;;;;;;5078386;28;20231;-52
2023/05/26 07:23:28;;;;;;;15.95;4.63;;;;;;;;;;5084130;28;20238;-51
2023/05/26 07:25:55;;;;;;;13.45;4.78;;;;;;;;;;5086828;28;20238;-52
2023/05/26 07:28:21;;;;;;;16.35;4.45;;;;;;;;;;5085053;28;20227;-53
2023/05/26 07:30:49;;;;;;;14.30;4.60;;;;;;;;;;5084581;28;20234;-52
2023/05/26 07:33:16;;;;;;;12.15;4.50;;;;;;;;;;5080390;28;20692;-54
2023/05/26 07:35:43;;;;;;;9.60;3.85;;;;;;;;;;5084093;27;20249;-52
2023/05/26 07:38:09;;;;;;;12.52;4.43;;;;;;;;;;5088300;28;20245;-51
2023/05/26 07:40:36;;;;;;;9.68;4.85;;;;;;;;;;5088887;28;20226;-52
2023/05/26 07:43:02;;;;;;;9.75;4.43;;;;;;;;;;5094322;27;20317;-52
2023/05/26 07:45:29;;;;;;;8.95;3.63;;;;;;;;;;5086400;28;20244;-54
2023/05/26 07:47:57;;;;;;;13.93;4.65;;;;;;;;;;5091624;28;20222;-51
2023/05/26 07:50:24;;;;;;;14.82;4.57;;;;;;;;;;5079955;28;20234;-53
2023/05/26 07:52:50;;;;;;;12.45;4.60;;;;;;;;;;5081810;28;20331;-51
2023/05/26 07:55:17;;;;;;;14.15;4.22;;;;;;;;;;5089672;28;20232;-53
2023/05/26 07:57:43;;;;;;;12.10;3.95;;;;;;;;;;5087025;28;20231;-52
2023/05/26 08:00:11;;;;;;;12.60;3.95;;;;;;;;;;5086674;28;20290;-51
2023/05/26 08:02:38;;;;;;;10.48;4.20;;;;;;;;;;5077641;28;20692;-52
2023/05/26 08:05:06;;;;;;;16.50;5.45;;;;;;;;;;5082438;28;20235;-52
2023/05/26 08:07:33;;;;;;;16.50;4.53;;;;;;;;;;5078768;28;20276;-53
2023/05/26 08:10:00;;;;;;;14.88;5.13;;;;;;;;;;5076346;28;20241;-51
2023/05/26 08:12:26;;;;;;;14.77;4.38;;;;;;;;;;5078175;28;20234;-52
2023/05/26 08:14:54;;;;;;;15.27;4.38;;;;;;;;;;5088043;28;20234;-52
2023/05/26 08:17:21;;;;;;;11.48;4.82;;;;;;;;;;5090485;28;20230;-52
2023/05/26 08:19:48;;;;;;;13.27;4.28;;;;;;;;;;5090143;28;20310;-61
2023/05/26 08:22:16;;;;;;;12.10;4.35;;;;;;;;;;5076995;28;20232;-53
2023/05/26 08:24:42;;;;;;;22.17;5.13;;;;;;;;;;5082876;28;20230;-52
2023/05/26 08:27:09;;;;;;;10.35;4.15;;;;;;;;;;5081566;28;20676;-52
2023/05/26 08:29:36;;;;;;;14.77;5.00;;;;;;;;;;5079041;28;20257;-51
2023/05/26 08:32:02;;;;;;;18.80;6.15;;;;;;;;;;5078396;28;20243;-52
2023/05/26 08:34:29;;;;;;;13.63;5.90;;;;;;;;;;5077933;28;20264;-51
2023/05/26 08:36:56;;;;;;;11.25;3.95;;;;;;;;;;5080768;28;20355;-51
2023/05/26 08:39:24;;;;;;;10.05;3.95;;;;;;;;;;5083571;28;20719;-53
2023/05/26 08:41:52;;;;;;;20.85;5.15;;;;;;;;;;5081121;28;20234;-53
2023/05/26 08:44:19;;;;;;;13.27;3.85;;;;;;;;;;5064286;28;20231;-51
2023/05/26 08:46:46;;;;;;;14.25;4.85;;;;;;;;;;5081538;28;20230;-52
2023/05/26 08:49:16;;;;;;;12.52;4.47;;;;;;;;;;5082122;28;20241;-53
2023/05/26 08:51:45;;;;;;;15.43;4.20;;;;;;;;;;5082599;28;20245;-51
2023/05/26 08:54:12;;;;;;;12.57;3.97;;;;;;;;;;5079455;28;20357;-51
2023/05/26 08:56:40;;;;;;;9.25;3.70;;;;;;;;;;5078477;28;20302;-51
2023/05/26 08:59:08;;;;;;;12.50;3.70;;;;;;;;;;5083137;28;20233;-51
2023/05/26 09:01:35;;;;;;;12.77;5.10;;;;;;;;;;5082063;28;20238;-52
2023/05/26 09:04:02;;;;;;;14.90;3.95;;;;;;;;;;5083087;28;20249;-51
2023/05/26 09:06:29;;;;;;;9.48;3.47;;;;;;;;;;5082153;28;20269;-51
2023/05/26 09:08:55;;;;;;;9.02;3.38;;;;;;;;;;5080448;28;20230;-51
2023/05/26 09:11:23;;;;;;;10.05;3.92;;;;;;;;;;5081903;28;20279;-52
2023/05/26 09:13:53;;;;;;;13.52;4.30;;;;;;;;;;5080730;28;20230;-56
2023/05/26 09:16:22;;;;;;;7.40;3.15;;;;;;;;;;5076121;28;20226;-53
2023/05/26 09:18:48;;;;;;;9.63;4.60;;;;;;;;;;5084910;28;20229;-52
2023/05/26 09:21:16;;;;;;;7.78;3.60;;;;;;;;;;5082639;28;20222;-53
2023/05/26 09:23:46;;;;;;;9.27;4.00;;;;;;;;;;5073510;28;20244;-51
2023/05/26 09:26:16;;;;;;;8.45;3.13;;;;;;;;;;5080076;28;20321;-51
2023/05/26 09:28:47;;;;;;;7.72;3.28;;;;;;;;;;5081104;28;20250;-50
2023/05/26 09:31:15;;;;;;;7.68;2.80;;;;;;;;;;5082358;28;20730;-51
2023/05/26 09:33:46;;;;;;;10.07;3.92;;;;;;;;;;5080722;28;20238;-51
2023/05/26 09:36:12;;;;;;;10.27;3.25;;;;;;;;;;5077887;28;20238;-52
2023/05/26 09:38:41;;;;;;;11.80;3.78;;;;;;;;;;5077436;28;20230;-52
2023/05/26 09:41:08;;;;;;;9.70;3.47;;;;;;;;;;5081489;28;20761;-52
2023/05/26 09:43:35;;;;;;;5.82;3.33;;;;;;;;;;5080635;28;20234;-52
2023/05/26 09:46:01;;;;;;;12.15;3.70;;;;;;;;;;5080961;28;20254;-51
2023/05/26 09:48:33;;;;;;;11.98;3.80;;;;;;;;;;5084450;28;20317;-51
2023/05/26 09:50:59;;;;;;;7.32;3.85;;;;;;;;;;5077484;28;20246;-52
2023/05/26 09:53:26;;;;;;;11.90;4.25;;;;;;;;;;5080726;28;20313;-52
2023/05/26 09:55:53;;;;;;;8.93;4.00;;;;;;;;;;5084442;28;20262;-54
2023/05/26 09:58:23;;;;;;;10.93;3.47;;;;;;;;;;5077211;28;20226;-53
2023/05/26 10:00:52;;;;;;;7.75;2.80;;;;;;;;;;5082117;28;20234;-54
2023/05/26 10:03:19;;;;;;;6.38;3.33;;;;;;;;;;5085284;28;20227;-52
2023/05/26 10:05:48;;;;;;;10.38;3.45;;;;;;;;;;5083716;28;20688;-59
2023/05/26 10:08:15;;;;;;;6.95;3.28;;;;;;;;;;5085510;28;20257;-52
2023/05/26 10:10:44;;;;;;;8.38;3.00;;;;;;;;;;5079244;28;20222;-54
2023/05/26 10:13:11;;;;;;;6.72;3.67;;;;;;;;;;5082747;28;20250;-59
2023/05/26 10:15:37;;;;;;;7.32;3.53;;;;;;;;;;5082041;28;20610;-53
2023/05/26 10:18:04;;;;;;;6.72;2.95;;;;;;;;;;5083092;28;20374;-54
2023/05/26 10:20:31;;;;;;;8.88;3.22;;;;;;;;;;5082310;28;20336;-53
2023/05/26 10:23:02;;;;;;;6.50;3.15;;;;;;;;;;5079499;28;20353;-52
2023/05/26 10:25:31;;;;;;;8.10;3.47;;;;;;;;;;5073356;28;20306;-52
2023/05/26 10:28:02;;;;;;;8.23;3.00;;;;;;;;;;5079767;28;20231;-53
2023/05/26 10:30:29;;;;;;;7.93;3.78;;;;;;;;;;5077977;28;20801;-53
2023/05/26 10:32:57;;;;;;;10.52;3.03;;;;;;;;;;5077095;28;20244;-53
2023/05/26 10:35:27;;;;;;;6.85;3.38;;;;;;;;;;5080919;28;20280;-59
2023/05/26 10:37:55;;;;;;;7.72;3.25;;;;;;;;;;5076128;28;20672;-52
2023/05/26 10:40:30;;;;;;;9.43;3.55;;;;;;;;;;5078822;28;20227;-53
2023/05/26 10:42:59;;;;;;;10.85;3.88;;;;;;;;;;5081077;28;20306;-52
2023/05/26 10:45:26;;;;;;;11.23;5.13;;;;;;;;;;5079823;28;20314;-52
2023/05/26 10:47:57;;;;;;;9.88;3.58;;;;;;;;;;5081265;28;20242;-52
2023/05/26 10:50:24;;;;;;;10.25;3.47;;;;;;;;;;5079625;28;20317;-56
2023/05/26 10:52:51;;;;;;;8.25;3.53;;;;;;;;;;5086149;28;20757;-53
2023/05/26 10:55:32;;;;;;;7.65;3.33;;;;;;;;;;5083676;28;20727;-53
2023/05/26 10:58:13;;;;;;;13.02;4.20;;;;;;;;;;5079835;28;20241;-53
2023/05/26 11:00:43;;;;;;;10.00;3.17;;;;;;;;;;5077553;28;20393;-51
2023/05/26 11:03:24;;;;;;;9.93;3.50;;;;;;;;;;5077620;28;20237;-53
2023/05/26 11:05:55;;;;;;;9.07;2.95;;;;;;;;;;5076415;28;20230;-52
2023/05/26 11:08:22;;;;;;;6.57;3.28;;;;;;;;;;5080372;28;20341;-52
2023/05/26 11:11:03;;;;;;;8.98;3.80;;;;;;;;;;5085309;28;20253;-53
2023/05/26 11:13:39;;;;;;;10.25;3.90;;;;;;;;;;5076415;28;20265;-51
2023/05/26 11:16:19;;;;;;;7.03;3.05;;;;;;;;;;5079627;28;20234;-53
2023/05/26 11:18:50;;;;;;;5.80;2.85;;;;;;;;;;5083564;28;20313;-52
2023/05/26 11:21:18;;;;;;;8.10;3.15;;;;;;;;;;5080165;28;20230;-52
2023/05/26 11:23:44;;;;;;;6.30;3.05;;;;;;;;;;5083438;28;20238;-52
2023/05/26 11:26:13;;;;;;;8.63;3.20;;;;;;;;;;5076366;28;20245;-52
2023/05/26 11:28:41;;;;;;;9.45;3.22;;;;;;;;;;5081726;28;20250;-54
2023/05/26 11:31:10;;;;;;;8.32;3.60;;;;;;;;;;5082116;28;20230;-51
2023/05/26 11:33:37;;;;;;;12.13;3.80;;;;;;;;;;5081536;28;20235;-52
2023/05/26 11:36:08;;;;;;;13.27;3.70;;;;;;;;;;5082543;28;20230;-52
2023/05/26 11:38:35;;;;;;;11.75;3.75;;;;;;;;;;5076883;28;20238;-54
2023/05/26 11:41:03;;;;;;;9.35;3.60;;;;;;;;;;5082152;28;20242;-51
2023/05/26 11:43:31;;;;;;;8.40;3.70;;;;;;;;;;5082816;28;20262;-51
2023/05/26 11:46:00;;;;;;;10.10;4.00;;;;;;;;;;5082352;28;20717;-53
2023/05/26 11:48:31;;;;;;;7.80;3.63;;;;;;;;;;5080058;28;20234;-53
2023/05/26 11:50:57;;;;;;;7.47;3.67;;;;;;;;;;5078847;28;20782;-52
2023/05/26 11:53:24;;;;;;;6.10;3.42;;;;;;;;;;5078909;28;20263;-51
2023/05/26 11:56:00;;;;;;;7.57;3.40;;;;;;;;;;5083443;28;20237;-52
2023/05/26 11:58:27;;;;;;;9.82;3.60;;;;;;;;;;5083743;28;20756;-52
2023/05/26 12:00:58;;;;;;;8.43;3.45;;;;;;;;;;5081585;28;20233;-58
2023/05/26 12:03:25;;;;;;;5.57;2.80;;;;;;;;;;5083349;28;20621;-52
2023/05/26 12:05:51;;;;;;;6.22;3.10;;;;;;;;;;5079524;28;20764;-53
2023/05/26 12:08:18;;;;;;;6.80;3.75;;;;;;;;;;5081350;28;20231;-52
2023/05/26 12:10:44;;;;;;;10.95;4.28;;;;;;;;;;5081367;28;20242;-51
2023/05/26 12:13:11;;;;;;;7.63;4.13;;;;;;;;;;5080825;28;20230;-52
2023/05/26 12:15:38;;;;;;;8.68;3.88;;;;;;;;;;5075548;28;20673;-52
2023/05/26 12:18:06;;;;;;;11.68;3.40;;;;;;;;;;5076444;28;20234;-52
2023/05/26 12:20:32;;;;;;;8.00;4.15;;;;;;;;;;5077044;28;20226;-52
2023/05/26 12:23:02;;;;;;;7.20;3.40;;;;;;;;;;5075791;28;20239;-52
2023/05/26 12:25:30;;;;;;;5.13;3.03;;;;;;;;;;5078260;28;20336;-52
2023/05/26 12:27:56;;;;;;;8.10;3.60;;;;;;;;;;5077977;28;20234;-51
2023/05/26 12:30:24;;;;;;;13.10;3.40;;;;;;;;;;5081467;28;20253;-52
2023/05/26 12:32:51;;;;;;;12.20;4.68;;;;;;;;;;5078852;28;20234;-53
2023/05/26 12:35:19;;;;;;;7.80;3.50;;;;;;;;;;5080975;28;20314;-51
2023/05/26 12:37:46;;;;;;;5.82;2.95;;;;;;;;;;5079757;28;20601;-51
2023/05/26 12:40:13;;;;;;;8.40;2.70;;;;;;;;;;5078613;28;20875;-52
2023/05/26 12:42:40;;;;;;;7.25;3.25;;;;;;;;;;5073046;28;20238;-52
2023/05/26 12:45:08;;;;;;;8.18;3.00;;;;;;;;;;5071826;28;20230;-51
2023/05/26 12:47:38;;;;;;;7.50;3.05;;;;;;;;;;5079289;28;20244;-53
2023/05/26 12:50:05;;;;;;;6.15;3.40;;;;;;;;;;5079685;28;20227;-52
2023/05/26 12:52:33;;;;;;;6.20;2.60;;;;;;;;;;5071158;28;20266;-52
2023/05/26 12:55:00;;;;;;;5.85;2.72;;;;;;;;;;5075756;28;20224;-51
2023/05/26 12:57:26;;;;;;;8.23;2.88;;;;;;;;;;5079879;28;20819;-52
2023/05/26 12:59:53;;;;;;;5.82;2.78;;;;;;;;;;5081377;28;20960;-53
2023/05/26 13:02:19;;;;;;;10.55;3.58;;;;;;;;;;5081865;28;20238;-52
2023/05/26 13:04:46;;;;;;;9.00;3.88;;;;;;;;;;5088760;28;20222;-53
2023/05/26 13:07:13;;;;;;;8.00;3.15;;;;;;;;;;5084478;28;20235;-51
2023/05/26 13:09:41;;;;;;;6.68;3.15;;;;;;;;;;5089429;28;20231;-54
2023/05/26 13:12:09;;;;;;;8.20;2.97;;;;;;;;;;5079148;28;20766;-53
2023/05/26 13:14:35;;;;;;;6.25;3.45;;;;;;;;;;5076913;28;20230;-51
2023/05/26 13:17:02;;;;;;;6.15;2.40;;;;;;;;;;5083915;28;20237;-52
2023/05/26 13:19:28;;;;;;;8.55;3.35;;;;;;;;;;5080340;28;20583;-51
2023/05/26 13:21:55;;;;;;;9.23;3.30;;;;;;;;;;5078173;28;20249;-54
2023/05/26 13:24:22;;;;;;;6.30;2.97;;;;;;;;;;5073688;28;20309;-52
2023/05/26 13:26:50;;;;;;;8.48;3.40;;;;;;;;;;5080372;28;20836;-52
2023/05/26 13:29:17;;;;;;;8.30;3.58;;;;;;;;;;5076403;28;20310;-51
2023/05/26 13:31:43;;;;;;;13.27;3.58;;;;;;;;;;5078484;28;20315;-54
2023/05/26 13:34:10;;;;;;;7.03;3.13;;;;;;;;;;5074814;28;21008;-52
2023/05/26 13:36:39;;;;;;;7.15;3.17;;;;;;;;;;5081616;28;20769;-51
2023/05/26 13:39:05;;;;;;;9.05;4.05;;;;;;;;;;5078975;28;20222;-52
2023/05/26 13:41:32;;;;;;;9.32;3.15;;;;;;;;;;5076889;28;20235;-51
2023/05/26 13:44:00;;;;;;;9.85;3.38;;;;;;;;;;5072527;27;20235;-53
2023/05/26 13:46:26;;;;;;;7.45;3.05;;;;;;;;;;5079312;28;20700;-51
2023/05/26 13:48:53;;;;;;;7.10;2.90;;;;;;;;;;5079428;28;21843;-52
2023/05/26 13:51:20;;;;;;;4.78;2.67;;;;;;;;;;5075170;28;20338;-52
2023/05/26 13:53:47;;;;;;;6.60;3.00;;;;;;;;;;5080477;28;20242;-51
2023/05/26 13:56:13;;;;;;;7.35;3.30;;;;;;;;;;5079280;28;20233;-52
2023/05/26 13:58:40;;;;;;;4.93;2.40;;;;;;;;;;5072982;27;20289;-52
2023/05/26 14:01:08;;;;;;;8.88;3.53;;;;;;;;;;5082589;28;20230;-53
2023/05/26 14:03:34;;;;;;;9.93;3.45;;;;;;;;;;5083635;28;20243;-52
2023/05/26 14:06:01;;;;;;;12.85;4.00;;;;;;;;;;5084453;28;20718;-52
2023/05/26 14:08:28;;;;;;;10.25;2.92;;;;;;;;;;5087148;28;20313;-51
2023/05/26 14:10:54;;;;;;;9.73;3.90;;;;;;;;;;5083624;28;20244;-53
2023/05/26 14:13:21;;;;;;;6.70;3.35;;;;;;;;;;5081542;28;20314;-51
2023/05/26 14:15:48;;;;;;;4.85;3.13;;;;;;;;;;5081965;28;20219;-52
2023/05/26 14:18:16;;;;;;;6.38;3.08;;;;;;;;;;5085099;28;20219;-53
2023/05/26 14:20:43;;;;;;;7.53;2.80;;;;;;;;;;5075168;28;20223;-52
2023/05/26 14:23:10;;;;;;;8.48;2.92;;;;;;;;;;5078676;28;20231;-53
2023/05/26 14:25:37;;;;;;;10.18;3.58;;;;;;;;;;5080617;28;20230;-52
2023/05/26 14:28:03;;;;;;;8.70;3.08;;;;;;;;;;5070008;28;20735;-51
2023/05/26 14:30:31;;;;;;;5.25;3.15;;;;;;;;;;5080428;28;20234;-53
2023/05/26 14:32:59;;;;;;;8.93;3.45;;;;;;;;;;5073535;28;20234;-51
2023/05/26 14:35:27;;;;;;;11.07;3.58;;;;;;;;;;5076605;28;20224;-52
2023/05/26 14:37:54;;;;;;;8.57;3.83;;;;;;;;;;5078482;28;20230;-51